sensor_id;sensor_type;location;lat;lon;timestamp;pressure;altitude;pressure_sealevel;temperature;humidity
69848;BME280;57143;55.940;37.496;2022-10-26T00:01:39;99232.47;;;-0.20;100.00
69848;BME280;57143;55.940;37.496;2022-10-26T00:04:06;99227.66;;;-0.17;100.00
69848;BME280;57143;55.940;37.496;2022-10-26T00:06:33;99216.66;;;-0.22;100.00
69848;BME280;57143;55.940;37.496;2022-10-26T00:09:00;99221.50;;;-0.17;100.00
69848;BME280;57143;55.940;37.496;2022-10-26T00:11:27;99205.50;;;-0.17;100.00
69848;BME280;57143;55.940;37.496;2022-10-26T00:13:54;99215.88;;;-0.14;100.00
69848;BME280;57143;55.940;37.496;2022-10-26T00:16:22;99198.34;;;-0.25;100.00
69848;BME280;57143;55.940;37.496;2022-10-26T00:18:51;99205.88;;;-0.12;100.00
69848;BME280;57143;55.940;37.496;2022-10-26T00:21:18;99198.72;;;-0.12;100.00
69848;BME280;57143;55.940;37.496;2022-10-26T00:23:45;99184.72;;;-0.22;100.00
69848;BME280;57143;55.940;37.496;2022-10-26T00:26:12;99203.06;;;-0.11;100.00
69848;BME280;57143;55.940;37.496;2022-10-26T00:28:40;99177.72;;;-0.23;100.00
69848;BME280;57143;55.940;37.496;2022-10-26T00:31:11;99173.38;;;-0.24;100.00
69848;BME280;57143;55.940;37.496;2022-10-26T00:33:38;99211.41;;;-0.06;100.00
69848;BME280;57143;55.940;37.496;2022-10-26T00:36:07;99210.38;;;-0.05;100.00
69848;BME280;57143;55.940;37.496;2022-10-26T00:38:35;99190.22;;;-0.15;100.00
69848;BME280;57143;55.940;37.496;2022-10-26T00:41:02;99203.59;;;0.01;100.00
69848;BME280;57143;55.940;37.496;2022-10-26T00:43:38;99195.94;;;-0.02;100.00
69848;BME280;57143;55.940;37.496;2022-10-26T00:46:08;99155.94;;;-0.18;100.00
69848;BME280;57143;55.940;37.496;2022-10-26T00:48:41;99198.25;;;0.01;100.00
69848;BME280;57143;55.940;37.496;2022-10-26T00:51:16;99093.72;;;-0.67;100.00
69848;BME280;57143;55.940;37.496;2022-10-26T00:53:44;99207.56;;;-0.03;100.00
69848;BME280;57143;55.940;37.496;2022-10-26T00:56:12;99215.09;;;0.10;100.00
69848;BME280;57143;55.940;37.496;2022-10-26T00:58:39;99190.09;;;0.11;100.00
69848;BME280;57143;55.940;37.496;2022-10-26T01:01:06;99203.13;;;0.14;100.00
69848;BME280;57143;55.940;37.496;2022-10-26T01:03:34;99181.94;;;0.04;100.00
69848;BME280;57143;55.940;37.496;2022-10-26T01:06:03;99206.13;;;0.19;100.00
69848;BME280;57143;55.940;37.496;2022-10-26T01:08:32;99210.09;;;0.15;100.00
69848;BME280;57143;55.940;37.496;2022-10-26T01:11:00;99201.59;;;0.19;100.00
69848;BME280;57143;55.940;37.496;2022-10-26T01:13:29;99210.09;;;0.15;100.00
69848;BME280;57143;55.940;37.496;2022-10-26T01:16:09;99204.44;;;0.18;100.00
69848;BME280;57143;55.940;37.496;2022-10-26T01:18:46;99206.13;;;0.19;100.00
69848;BME280;57143;55.940;37.496;2022-10-26T01:21:37;99198.44;;;0.16;100.00
69848;BME280;57143;55.940;37.496;2022-10-26T01:27:27;99153.44;;;-0.20;100.00
69848;BME280;57143;55.940;37.496;2022-10-26T01:33:04;99191.97;;;0.10;100.00
69848;BME280;57143;55.940;37.496;2022-10-26T01:35:38;99192.28;;;0.15;100.00
69848;BME280;57143;55.940;37.496;2022-10-26T01:38:10;99193.44;;;0.13;100.00
69848;BME280;57143;55.940;37.496;2022-10-26T01:40:44;99201.59;;;0.19;100.00
69848;BME280;57143;55.940;37.496;2022-10-26T01:43:13;99202.28;;;0.21;100.00
69848;BME280;57143;55.940;37.496;2022-10-26T01:45:43;99164.44;;;-0.07;100.00
69848;BME280;57143;55.940;37.496;2022-10-26T01:48:16;99202.78;;;0.09;100.00
69848;BME280;57143;55.940;37.496;2022-10-26T01:50:46;99154.75;;;-0.24;100.00
69848;BME280;57143;55.940;37.496;2022-10-26T01:53:16;99197.59;;;-0.01;100.00
69848;BME280;57143;55.940;37.496;2022-10-26T01:55:48;99132.06;;;-0.44;100.00
69848;BME280;57143;55.940;37.496;2022-10-26T01:58:41;99196.09;;;0.05;100.00
69848;BME280;57143;55.940;37.496;2022-10-26T02:01:25;99188.09;;;0.05;100.00
69848;BME280;57143;55.940;37.496;2022-10-26T02:04:07;99171.09;;;-0.11;100.00
69848;BME280;57143;55.940;37.496;2022-10-26T02:06:44;99189.41;;;0.00;100.00
69848;BME280;57143;55.940;37.496;2022-10-26T02:09:19;99185.78;;;0.02;100.00
69848;BME280;57143;55.940;37.496;2022-10-26T02:11:52;99147.75;;;-0.25;100.00
69848;BME280;57143;55.940;37.496;2022-10-26T02:14:23;99198.94;;;0.03;100.00
69848;BME280;57143;55.940;37.496;2022-10-26T02:16:57;99192.59;;;0.04;100.00
69848;BME280;57143;55.940;37.496;2022-10-26T02:19:34;99111.25;;;-0.48;100.00
69848;BME280;57143;55.940;37.496;2022-10-26T02:22:07;99163.63;;;-0.07;100.00
69848;BME280;57143;55.940;37.496;2022-10-26T02:24:37;99143.75;;;-0.21;100.00
69848;BME280;57143;55.940;37.496;2022-10-26T02:27:07;99192.75;;;0.11;100.00
69848;BME280;57143;55.940;37.496;2022-10-26T02:29:36;99194.13;;;0.15;100.00
69848;BME280;57143;55.940;37.496;2022-10-26T02:32:07;99182.44;;;0.08;100.00
69848;BME280;57143;55.940;37.496;2022-10-26T02:34:37;99184.78;;;0.11;100.00
69848;BME280;57143;55.940;37.496;2022-10-26T02:37:06;99200.13;;;0.25;100.00
69848;BME280;57143;55.940;37.496;2022-10-26T02:39:35;99168.47;;;0.14;100.00
69848;BME280;57143;55.940;37.496;2022-10-26T02:42:05;99184.31;;;0.15;100.00
69848;BME280;57143;55.940;37.496;2022-10-26T02:44:38;99198.97;;;0.27;100.00
69848;BME280;57143;55.940;37.496;2022-10-26T02:47:08;99201.31;;;0.30;100.00
69848;BME280;57143;55.940;37.496;2022-10-26T02:49:36;99206.81;;;0.29;100.00
69848;BME280;57143;55.940;37.496;2022-10-26T02:52:10;99185.78;;;0.18;100.00
69848;BME280;57143;55.940;37.496;2022-10-26T02:54:47;99205.63;;;0.31;100.00
69848;BME280;57143;55.940;37.496;2022-10-26T02:57:18;99182.81;;;0.21;100.00
69848;BME280;57143;55.940;37.496;2022-10-26T02:59:46;99200.16;;;0.33;100.00
69848;BME280;57143;55.940;37.496;2022-10-26T03:02:15;99178.00;;;0.24;100.00
69848;BME280;57143;55.940;37.496;2022-10-26T03:04:44;99194.97;;;0.31;100.00
69848;BME280;57143;55.940;37.496;2022-10-26T03:07:11;99178.97;;;0.23;100.00
69848;BME280;57143;55.940;37.496;2022-10-26T03:09:38;99159.97;;;0.18;100.00
69848;BME280;57143;55.940;37.496;2022-10-26T03:12:06;99191.81;;;0.36;100.00
69848;BME280;57143;55.940;37.496;2022-10-26T03:14:33;99172.81;;;0.31;100.00
69848;BME280;57143;55.940;37.496;2022-10-26T03:17:00;99186.31;;;0.37;100.00
69848;BME280;57143;55.940;37.496;2022-10-26T03:19:27;99188.31;;;0.43;100.00
69848;BME280;57143;55.940;37.496;2022-10-26T03:21:55;99196.81;;;0.39;100.00
69848;BME280;57143;55.940;37.496;2022-10-26T03:24:22;99147.66;;;0.25;100.00
69848;BME280;57143;55.940;37.496;2022-10-26T03:26:49;99166.31;;;0.33;100.00
69848;BME280;57143;55.940;37.496;2022-10-26T03:29:16;99191.97;;;0.42;100.00
69848;BME280;57143;55.940;37.496;2022-10-26T03:31:43;99170.84;;;0.33;100.00
69848;BME280;57143;55.940;37.496;2022-10-26T03:34:10;99178.66;;;0.34;100.00
69848;BME280;57143;55.940;37.496;2022-10-26T03:36:38;99189.31;;;0.42;100.00
69848;BME280;57143;55.940;37.496;2022-10-26T03:39:06;99199.00;;;0.51;100.00
69848;BME280;57143;55.940;37.496;2022-10-26T03:41:33;99195.16;;;0.38;100.00
69848;BME280;57143;55.940;37.496;2022-10-26T03:44:00;99211.66;;;0.49;100.00
69848;BME280;57143;55.940;37.496;2022-10-26T03:46:27;99205.31;;;0.50;100.00
69848;BME280;57143;55.940;37.496;2022-10-26T03:48:54;99202.31;;;0.53;100.00
69848;BME280;57143;55.940;37.496;2022-10-26T03:51:21;99201.66;;;0.51;100.00
69848;BME280;57143;55.940;37.496;2022-10-26T03:53:48;99207.66;;;0.53;100.00
69848;BME280;57143;55.940;37.496;2022-10-26T03:56:17;99195.66;;;0.41;100.00
69848;BME280;57143;55.940;37.496;2022-10-26T03:58:44;99177.16;;;0.40;100.00
69848;BME280;57143;55.940;37.496;2022-10-26T04:01:11;99198.31;;;0.57;100.00
69848;BME280;57143;55.940;37.496;2022-10-26T04:03:38;99201.66;;;0.59;100.00
69848;BME280;57143;55.940;37.496;2022-10-26T04:06:05;99211.00;;;0.63;100.00
69848;BME280;57143;55.940;37.496;2022-10-26T04:08:32;99207.47;;;0.63;100.00
69848;BME280;57143;55.940;37.496;2022-10-26T04:11:00;99214.50;;;0.64;100.00
69848;BME280;57143;55.940;37.496;2022-10-26T04:13:29;99175.66;;;0.37;100.00
69848;BME280;57143;55.940;37.496;2022-10-26T04:15:56;99213.47;;;0.65;100.00
69848;BME280;57143;55.940;37.496;2022-10-26T04:18:24;99125.66;;;0.07;100.00
69848;BME280;57143;55.940;37.496;2022-10-26T04:20:51;99213.16;;;0.76;100.00
69848;BME280;57143;55.940;37.496;2022-10-26T04:23:18;99217.66;;;0.75;100.00
69848;BME280;57143;55.940;37.496;2022-10-26T04:25:45;99227.97;;;0.78;100.00
69848;BME280;57143;55.940;37.496;2022-10-26T04:28:13;99212.31;;;0.75;100.00
69848;BME280;57143;55.940;37.496;2022-10-26T04:30:42;99222.47;;;0.80;100.00
69848;BME280;57143;55.940;37.496;2022-10-26T04:33:09;99227.97;;;0.78;100.00
69848;BME280;57143;55.940;37.496;2022-10-26T04:35:36;99210.13;;;0.71;100.00
69848;BME280;57143;55.940;37.496;2022-10-26T04:38:04;99241.47;;;0.85;100.00
69848;BME280;57143;55.940;37.496;2022-10-26T04:40:33;99221.16;;;0.76;100.00
69848;BME280;57143;55.940;37.496;2022-10-26T04:43:00;99239.13;;;0.90;100.00
69848;BME280;57143;55.940;37.496;2022-10-26T04:45:27;99197.81;;;0.70;100.00
69848;BME280;57143;55.940;37.496;2022-10-26T04:48:03;99142.50;;;0.32;100.00
69848;BME280;57143;55.940;37.496;2022-10-26T04:50:31;99235.81;;;0.80;100.00
69848;BME280;57143;55.940;37.496;2022-10-26T04:52:58;99236.78;;;0.95;100.00
69848;BME280;57143;55.940;37.496;2022-10-26T04:55:25;99233.47;;;0.85;100.00
69848;BME280;57143;55.940;37.496;2022-10-26T04:57:53;99210.63;;;0.74;100.00
69848;BME280;57143;55.940;37.496;2022-10-26T05:00:20;99231.47;;;0.87;100.00
69848;BME280;57143;55.940;37.496;2022-10-26T05:02:47;99240.31;;;0.95;100.00
69848;BME280;57143;55.940;37.496;2022-10-26T05:05:15;99241.81;;;0.98;100.00
69848;BME280;57143;55.940;37.496;2022-10-26T05:07:42;99244.31;;;0.99;100.00
69848;BME280;57143;55.940;37.496;2022-10-26T05:10:10;99245.78;;;1.02;100.00
69848;BME280;57143;55.940;37.496;2022-10-26T05:12:38;99255.13;;;1.14;100.00
69848;BME280;57143;55.940;37.496;2022-10-26T05:15:06;99256.63;;;1.16;100.00
69848;BME280;57143;55.940;37.496;2022-10-26T05:17:33;99258.78;;;1.21;100.00
69848;BME280;57143;55.940;37.496;2022-10-26T05:20:00;99245.28;;;1.14;100.00
69848;BME280;57143;55.940;37.496;2022-10-26T05:22:31;99256.94;;;1.30;100.00
69848;BME280;57143;55.940;37.496;2022-10-26T05:24:59;99256.94;;;1.30;100.00
69848;BME280;57143;55.940;37.496;2022-10-26T05:27:26;99252.44;;;1.30;100.00
69848;BME280;57143;55.940;37.496;2022-10-26T05:29:53;99263.44;;;1.35;100.00
69848;BME280;57143;55.940;37.496;2022-10-26T05:32:20;99260.28;;;1.32;100.00
69848;BME280;57143;55.940;37.496;2022-10-26T05:34:47;99262.44;;;1.44;100.00
69848;BME280;57143;55.940;37.496;2022-10-26T05:37:14;99258.91;;;1.44;100.00
69848;BME280;57143;55.940;37.496;2022-10-26T05:39:42;99243.91;;;1.43;100.00
69848;BME280;57143;55.940;37.496;2022-10-26T05:42:09;99277.91;;;1.49;100.00
69848;BME280;57143;55.940;37.496;2022-10-26T05:44:36;99281.13;;;1.44;100.00
69848;BME280;57143;55.940;37.496;2022-10-26T05:47:03;99279.47;;;1.43;100.00
69848;BME280;57143;55.940;37.496;2022-10-26T05:49:35;99276.09;;;1.49;100.00
69848;BME280;57143;55.940;37.496;2022-10-26T05:52:02;99268.94;;;1.50;100.00
69848;BME280;57143;55.940;37.496;2022-10-26T05:54:29;99272.59;;;1.57;100.00
69848;BME280;57143;55.940;37.496;2022-10-26T05:56:58;99268.44;;;1.46;100.00
69848;BME280;57143;55.940;37.496;2022-10-26T05:59:26;99277.41;;;1.61;100.00
69848;BME280;57143;55.940;37.496;2022-10-26T06:02:04;99284.88;;;1.66;100.00
69848;BME280;57143;55.940;37.496;2022-10-26T06:04:37;99241.59;;;1.40;100.00
69848;BME280;57143;55.940;37.496;2022-10-26T06:07:10;99274.19;;;1.74;100.00
69848;BME280;57143;55.940;37.496;2022-10-26T06:09:38;99292.50;;;1.85;100.00
69848;BME280;57143;55.940;37.496;2022-10-26T06:12:08;99288.31;;;1.90;100.00
69848;BME280;57143;55.940;37.496;2022-10-26T06:14:36;99287.47;;;1.98;100.00
69848;BME280;57143;55.940;37.496;2022-10-26T06:17:16;99282.47;;;1.95;100.00
69848;BME280;57143;55.940;37.496;2022-10-26T06:19:56;99296.59;;;2.11;100.00
69848;BME280;57143;55.940;37.496;2022-10-26T06:22:40;99288.94;;;2.08;100.00
69848;BME280;57143;55.940;37.496;2022-10-26T06:25:18;99304.88;;;2.24;100.00
69848;BME280;57143;55.940;37.496;2022-10-26T06:27:55;99304.50;;;2.35;100.00
69848;BME280;57143;55.940;37.496;2022-10-26T06:30:27;99320.31;;;2.45;100.00
69848;BME280;57143;55.940;37.496;2022-10-26T06:32:54;99322.47;;;2.50;100.00
69848;BME280;57143;55.940;37.496;2022-10-26T06:35:29;99331.34;;;2.50;100.00
69848;BME280;57143;55.940;37.496;2022-10-26T06:38:07;99333.78;;;2.60;100.00
69848;BME280;57143;55.940;37.496;2022-10-26T06:40:37;99320.88;;;2.63;100.00
69848;BME280;57143;55.940;37.496;2022-10-26T06:43:12;99353.69;;;2.88;100.00
69848;BME280;57143;55.940;37.496;2022-10-26T06:45:44;99357.50;;;2.93;100.00
69848;BME280;57143;55.940;37.496;2022-10-26T06:48:17;99326.78;;;2.59;100.00
69848;BME280;57143;55.940;37.496;2022-10-26T06:50:50;99323.09;;;2.60;100.00
69848;BME280;57143;55.940;37.496;2022-10-26T06:53:22;99377.59;;;2.89;100.00
69848;BME280;57143;55.940;37.496;2022-10-26T06:55:56;99368.59;;;2.82;100.00
69848;BME280;57143;55.940;37.496;2022-10-26T06:58:32;99363.06;;;2.84;100.00
69848;BME280;57143;55.940;37.496;2022-10-26T07:01:04;99385.94;;;2.94;100.00
69848;BME280;57143;55.940;37.496;2022-10-26T07:03:31;99366.41;;;2.86;100.00
69848;BME280;57143;55.940;37.496;2022-10-26T07:06:01;99396.75;;;3.01;100.00
69848;BME280;57143;55.940;37.496;2022-10-26T07:08:29;99402.53;;;3.12;100.00
69848;BME280;57143;55.940;37.496;2022-10-26T07:10:57;99394.50;;;3.12;100.00
69848;BME280;57143;55.940;37.496;2022-10-26T07:13:26;99404.38;;;3.12;100.00
69848;BME280;57143;55.940;37.496;2022-10-26T07:15:53;99416.19;;;3.25;100.00
69848;BME280;57143;55.940;37.496;2022-10-26T07:18:20;99424.22;;;3.25;100.00
69848;BME280;57143;55.940;37.496;2022-10-26T07:20:47;99416.47;;;3.30;100.00
69848;BME280;57143;55.940;37.496;2022-10-26T07:23:14;99432.78;;;3.43;100.00
69848;BME280;57143;55.940;37.496;2022-10-26T07:25:41;99430.72;;;3.53;100.00
69848;BME280;57143;55.940;37.496;2022-10-26T07:28:09;99423.06;;;3.42;100.00
69848;BME280;57143;55.940;37.496;2022-10-26T07:30:38;99406.72;;;3.37;100.00
69848;BME280;57143;55.940;37.496;2022-10-26T07:33:07;99435.34;;;3.60;100.00
69848;BME280;57143;55.940;37.496;2022-10-26T07:35:35;99444.50;;;3.65;100.00
69848;BME280;57143;55.940;37.496;2022-10-26T07:38:02;99439.38;;;3.55;100.00
69848;BME280;57143;55.940;37.496;2022-10-26T07:40:30;99470.75;;;3.70;100.00
69848;BME280;57143;55.940;37.496;2022-10-26T07:42:57;99470.91;;;3.76;100.00
69848;BME280;57143;55.940;37.496;2022-10-26T07:45:25;99452.38;;;3.67;100.00
69848;BME280;57143;55.940;37.496;2022-10-26T07:47:54;99477.53;;;3.80;100.00
69848;BME280;57143;55.940;37.496;2022-10-26T07:50:22;99489.22;;;3.87;100.00
69848;BME280;57143;55.940;37.496;2022-10-26T07:52:49;99493.22;;;3.91;100.00
69848;BME280;57143;55.940;37.496;2022-10-26T07:55:16;99449.28;;;3.78;100.00
69848;BME280;57143;55.940;37.496;2022-10-26T07:57:44;99501.28;;;4.06;100.00
69848;BME280;57143;55.940;37.496;2022-10-26T08:00:13;99506.31;;;4.09;100.00
69848;BME280;57143;55.940;37.496;2022-10-26T08:02:40;99505.47;;;4.08;100.00
69848;BME280;57143;55.940;37.496;2022-10-26T08:05:08;99505.28;;;4.10;100.00
69848;BME280;57143;55.940;37.496;2022-10-26T08:07:40;99506.88;;;4.19;100.00
69848;BME280;57143;55.940;37.496;2022-10-26T08:10:09;99513.09;;;4.19;100.00
69848;BME280;57143;55.940;37.496;2022-10-26T08:12:36;99526.81;;;4.39;100.00
69848;BME280;57143;55.940;37.496;2022-10-26T08:15:04;99530.88;;;4.49;100.00
69848;BME280;57143;55.940;37.496;2022-10-26T08:17:31;99538.59;;;4.67;100.00
69848;BME280;57143;55.940;37.496;2022-10-26T08:19:58;99540.53;;;4.73;100.00
69848;BME280;57143;55.940;37.496;2022-10-26T08:22:29;99546.75;;;4.73;100.00
69848;BME280;57143;55.940;37.496;2022-10-26T08:24:56;99546.66;;;4.82;100.00
69848;BME280;57143;55.940;37.496;2022-10-26T08:27:23;99553.16;;;5.02;100.00
69848;BME280;57143;55.940;37.496;2022-10-26T08:29:50;99552.97;;;5.03;100.00
69848;BME280;57143;55.940;37.496;2022-10-26T08:32:17;99555.63;;;5.18;100.00
69848;BME280;57143;55.940;37.496;2022-10-26T08:34:44;99575.53;;;5.23;100.00
69848;BME280;57143;55.940;37.496;2022-10-26T08:37:11;99577.59;;;5.07;100.00
69848;BME280;57143;55.940;37.496;2022-10-26T08:39:40;99574.34;;;5.11;100.00
69848;BME280;57143;55.940;37.496;2022-10-26T08:42:12;99583.25;;;5.12;100.00
69848;BME280;57143;55.940;37.496;2022-10-26T08:44:44;99568.06;;;4.90;100.00
69848;BME280;57143;55.940;37.496;2022-10-26T08:47:17;99594.72;;;5.06;100.00
69848;BME280;57143;55.940;37.496;2022-10-26T08:49:49;99597.31;;;4.99;100.00
69848;BME280;57143;55.940;37.496;2022-10-26T08:52:22;99596.50;;;4.99;100.00
69848;BME280;57143;55.940;37.496;2022-10-26T08:54:53;99602.78;;;5.20;100.00
69848;BME280;57143;55.940;37.496;2022-10-26T08:57:25;99615.09;;;5.15;100.00
69848;BME280;57143;55.940;37.496;2022-10-26T08:59:58;99605.47;;;5.20;100.00
69848;BME280;57143;55.940;37.496;2022-10-26T09:02:26;99614.28;;;5.14;100.00
69848;BME280;57143;55.940;37.496;2022-10-26T09:04:53;99623.44;;;5.05;100.00
69848;BME280;57143;55.940;37.496;2022-10-26T09:07:45;99613.44;;;4.85;100.00
69848;BME280;57143;55.940;37.496;2022-10-26T09:10:23;99623.22;;;4.92;100.00
69848;BME280;57143;55.940;37.496;2022-10-26T09:13:00;99624.63;;;5.03;100.00
69848;BME280;57143;55.940;37.496;2022-10-26T09:15:39;99603.25;;;4.95;100.00
69848;BME280;57143;55.940;37.496;2022-10-26T09:18:20;99603.78;;;4.90;100.00
69848;BME280;57143;55.940;37.496;2022-10-26T09:21:02;99592.00;;;4.77;100.00
69848;BME280;57143;55.940;37.496;2022-10-26T09:26:36;99599.00;;;5.00;100.00
69848;BME280;57143;55.940;37.496;2022-10-26T09:29:09;99596.88;;;5.10;100.00
69848;BME280;57143;55.940;37.496;2022-10-26T09:31:40;99624.00;;;5.15;100.00
69848;BME280;57143;55.940;37.496;2022-10-26T09:34:15;99611.78;;;5.27;100.00
69848;BME280;57143;55.940;37.496;2022-10-26T09:36:43;99623.16;;;5.29;100.00
69848;BME280;57143;55.940;37.496;2022-10-26T09:39:18;99582.50;;;5.03;100.00
69848;BME280;57143;55.940;37.496;2022-10-26T09:41:54;99605.94;;;5.24;100.00
69848;BME280;57143;55.940;37.496;2022-10-26T09:44:26;99613.16;;;5.23;100.00
69848;BME280;57143;55.940;37.496;2022-10-26T09:47:00;99523.41;;;4.59;100.00
69848;BME280;57143;55.940;37.496;2022-10-26T09:49:35;99618.81;;;5.14;100.00
69848;BME280;57143;55.940;37.496;2022-10-26T09:52:06;99623.91;;;5.23;100.00
69848;BME280;57143;55.940;37.496;2022-10-26T09:54:33;99618.72;;;5.22;100.00
69848;BME280;57143;55.940;37.496;2022-10-26T09:57:03;99615.94;;;5.30;100.00
69848;BME280;57143;55.940;37.496;2022-10-26T09:59:34;99602.13;;;5.33;100.00
69848;BME280;57143;55.940;37.496;2022-10-26T10:02:31;99625.22;;;5.27;100.00
69848;BME280;57143;55.940;37.496;2022-10-26T10:04:59;99575.00;;;4.99;100.00
69848;BME280;57143;55.940;37.496;2022-10-26T10:07:26;99618.91;;;5.20;100.00
69848;BME280;57143;55.940;37.496;2022-10-26T10:10:14;99608.72;;;5.16;100.00
69848;BME280;57143;55.940;37.496;2022-10-26T10:12:45;99607.31;;;5.05;100.00
69848;BME280;57143;55.940;37.496;2022-10-26T10:15:17;99628.34;;;5.16;100.00
69848;BME280;57143;55.940;37.496;2022-10-26T10:17:49;99605.00;;;5.17;100.00
69848;BME280;57143;55.940;37.496;2022-10-26T10:20:28;99622.34;;;5.29;100.00
69848;BME280;57143;55.940;37.496;2022-10-26T10:23:02;99615.13;;;5.29;100.00
69848;BME280;57143;55.940;37.496;2022-10-26T10:25:34;99517.75;;;4.54;100.00
69848;BME280;57143;55.940;37.496;2022-10-26T10:28:19;99612.13;;;5.10;100.00
69848;BME280;57143;55.940;37.496;2022-10-26T10:30:55;99619.94;;;5.19;100.00
69848;BME280;57143;55.940;37.496;2022-10-26T10:33:32;99619.38;;;5.24;100.00
69848;BME280;57143;55.940;37.496;2022-10-26T10:36:01;99595.28;;;5.01;100.00
69848;BME280;57143;55.940;37.496;2022-10-26T10:38:36;99561.75;;;4.83;100.00
69848;BME280;57143;55.940;37.496;2022-10-26T10:41:04;99617.53;;;5.24;100.00
69848;BME280;57143;55.940;37.496;2022-10-26T10:43:33;99619.94;;;5.19;100.00
69848;BME280;57143;55.940;37.496;2022-10-26T10:46:00;99594.00;;;5.12;100.00
69848;BME280;57143;55.940;37.496;2022-10-26T10:48:28;99621.75;;;5.33;100.00
69848;BME280;57143;55.940;37.496;2022-10-26T10:50:58;99606.59;;;5.26;100.00
69848;BME280;57143;55.940;37.496;2022-10-26T10:53:29;99601.28;;;5.32;100.00
69848;BME280;57143;55.940;37.496;2022-10-26T10:56:05;99597.13;;;5.30;100.00
69848;BME280;57143;55.940;37.496;2022-10-26T10:58:44;99621.59;;;5.35;100.00
69848;BME280;57143;55.940;37.496;2022-10-26T11:01:13;99586.00;;;5.18;100.00
69848;BME280;57143;55.940;37.496;2022-10-26T11:03:55;99611.19;;;5.32;100.00
69848;BME280;57143;55.940;37.496;2022-10-26T11:06:27;99622.69;;;5.40;100.00
69848;BME280;57143;55.940;37.496;2022-10-26T11:09:00;99620.56;;;5.36;100.00
69848;BME280;57143;55.940;37.496;2022-10-26T11:11:32;99617.22;;;5.34;100.00
69848;BME280;57143;55.940;37.496;2022-10-26T11:14:05;99631.41;;;5.42;100.00
69848;BME280;57143;55.940;37.496;2022-10-26T11:16:38;99629.19;;;5.46;100.00
69848;BME280;57143;55.940;37.496;2022-10-26T11:19:16;99626.28;;;5.47;100.00
69848;BME280;57143;55.940;37.496;2022-10-26T11:21:46;99625.84;;;5.58;100.00
69848;BME280;57143;55.940;37.496;2022-10-26T11:24:19;99614.34;;;5.50;100.00
69848;BME280;57143;55.940;37.496;2022-10-26T11:26:50;99626.41;;;5.54;100.00
69848;BME280;57143;55.940;37.496;2022-10-26T11:29:30;99637.16;;;5.54;100.00
69848;BME280;57143;55.940;37.496;2022-10-26T11:32:06;99631.03;;;5.60;100.00
69848;BME280;57143;55.940;37.496;2022-10-26T11:34:40;99637.31;;;5.67;100.00
69848;BME280;57143;55.940;37.496;2022-10-26T11:37:13;99608.41;;;5.54;100.00
69848;BME280;57143;55.940;37.496;2022-10-26T11:39:45;99641.19;;;5.79;100.00
69848;BME280;57143;55.940;37.496;2022-10-26T11:42:20;99607.88;;;5.44;100.00
69848;BME280;57143;55.940;37.496;2022-10-26T11:44:56;99646.69;;;5.56;100.00
69848;BME280;57143;55.940;37.496;2022-10-26T11:47:31;99628.53;;;5.44;100.00
69848;BME280;57143;55.940;37.496;2022-10-26T11:50:05;99606.88;;;5.31;100.00
69848;BME280;57143;55.940;37.496;2022-10-26T11:52:43;99633.72;;;5.45;100.00
69848;BME280;57143;55.940;37.496;2022-10-26T11:55:10;99632.44;;;5.41;100.00
69848;BME280;57143;55.940;37.496;2022-10-26T11:57:39;99631.78;;;5.39;100.00
69848;BME280;57143;55.940;37.496;2022-10-26T12:00:19;99598.06;;;5.08;100.00
69848;BME280;57143;55.940;37.496;2022-10-26T12:02:49;99613.44;;;5.28;100.00
69848;BME280;57143;55.940;37.496;2022-10-26T12:05:21;99637.34;;;5.38;100.00
69848;BME280;57143;55.940;37.496;2022-10-26T12:07:51;99580.94;;;5.09;100.00
69848;BME280;57143;55.940;37.496;2022-10-26T12:10:25;99532.41;;;4.81;100.00
69848;BME280;57143;55.940;37.496;2022-10-26T12:13:10;99643.53;;;5.53;100.00
69848;BME280;57143;55.940;37.496;2022-10-26T12:15:46;99610.28;;;5.39;100.00
69848;BME280;57143;55.940;37.496;2022-10-26T12:18:20;99629.91;;;5.54;100.00
69848;BME280;57143;55.940;37.496;2022-10-26T12:20:57;99621.13;;;5.46;100.00
69848;BME280;57143;55.940;37.496;2022-10-26T12:23:28;99629.19;;;5.46;100.00
69848;BME280;57143;55.940;37.496;2022-10-26T12:29:28;99627.53;;;5.45;100.00
69848;BME280;57143;55.940;37.496;2022-10-26T12:31:57;99647.91;;;5.54;100.00
69848;BME280;57143;55.940;37.496;2022-10-26T12:37:36;99597.31;;;5.14;100.00
69848;BME280;57143;55.940;37.496;2022-10-26T12:40:42;99639.19;;;5.37;100.00
69848;BME280;57143;55.940;37.496;2022-10-26T12:43:35;99637.34;;;5.38;100.00
69848;BME280;57143;55.940;37.496;2022-10-26T12:58:51;99624.00;;;5.15;100.00
69848;BME280;57143;55.940;37.496;2022-10-26T13:04:43;99627.06;;;5.12;100.00
69848;BME280;57143;55.940;37.496;2022-10-26T13:07:22;99624.09;;;5.07;100.00
69848;BME280;57143;55.940;37.496;2022-10-26T13:10:00;99629.34;;;5.01;100.00
69848;BME280;57143;55.940;37.496;2022-10-26T13:12:37;99602.69;;;4.85;100.00
69848;BME280;57143;55.940;37.496;2022-10-26T13:15:21;99581.00;;;4.71;100.00
69848;BME280;57143;55.940;37.496;2022-10-26T13:18:01;99615.81;;;4.94;100.00
69848;BME280;57143;55.940;37.496;2022-10-26T13:20:34;99611.03;;;4.90;100.00
69848;BME280;57143;55.940;37.496;2022-10-26T13:23:02;99626.56;;;4.94;100.00
69848;BME280;57143;55.940;37.496;2022-10-26T13:25:40;99603.97;;;4.89;100.00
69848;BME280;57143;55.940;37.496;2022-10-26T13:28:32;99601.38;;;4.81;100.00
69848;BME280;57143;55.940;37.496;2022-10-26T13:31:01;99617.56;;;4.87;100.00
69848;BME280;57143;55.940;37.496;2022-10-26T13:33:34;99594.03;;;4.74;100.00
69848;BME280;57143;55.940;37.496;2022-10-26T13:36:15;99600.25;;;4.75;100.00
69848;BME280;57143;55.940;37.496;2022-10-26T13:38:46;99618.94;;;4.68;100.00
69848;BME280;57143;55.940;37.496;2022-10-26T13:41:24;99615.88;;;4.71;100.00
69848;BME280;57143;55.940;37.496;2022-10-26T13:43:53;99606.84;;;4.72;100.00